Brownsville, Indiana
Current Conditions -  °F | °C
As of 5:15 PM on Wednesday 28 Jan 2015 (Local Time) from KI67 Reporting Station
Clear Clear  
Wind Chill: 27°   Ceiling: Unl
Heat Index: 34°   Visibility: 10mi
Dew Point: 18°   Wind: 8mph
Humidity: 52%   Direction: 150°SSE
Pressure: 30.24"   Gusts: NA
Location:  39.66°N, 85°W
Report Text: KI67 282215Z AUTO 15007KT 10SM CLR 01/M08 A3024 RMK AO1
Loading
Personal Weather Stations






























Interactive Weather Map New forecast layout! Learn more

10-Day Weather Forecast

Advertisements
Track Severe Weather on mobile